This is the latest recevied weather packets stored in our database for station/object W2GRK-15. If no packets are shown the sender has not sent any weather packets the latest 10 day(s).
| Time | Temp. | Humidity | Pressure | Rain* | Wind** | Luminosity | Snow |
|---|---|---|---|---|---|---|---|
| 1777476261 | 16.67° C | 51% | 1015.5 hPa | 0 mm | - | 176 W/m² | - |
| 1777476148 | 16.67° C | 50% | 1015.4 hPa | 0 mm | - | 166 W/m² | - |
| 1777475906 | 16.67° C | 49% | 1015.4 hPa | 0 mm | - | 200 W/m² | - |
| 1777475664 | 16.67° C | 48% | 1015.4 hPa | 0 mm | - | 269 W/m² | - |
| 1777475599 | 16.67° C | 49% | 1015.4 hPa | 0 mm | - | 269 W/m² | - |
| 1777475551 | 16.11° C | 49% | 1015.4 hPa | 0 mm | - | 267 W/m² | - |
| 1777475310 | 16.11° C | 50% | 1015.5 hPa | 0 mm | - | 258 W/m² | - |
| 1777475245 | 16.11° C | 50% | 1015.4 hPa | 0 mm | - | 241 W/m² | - |
| 1777474958 | 16.67° C | 47% | 1015.5 hPa | 0 mm | - | 257 W/m² | - |
| 1777474889 | 16.67° C | 48% | 1015.7 hPa | 0 mm | - | 286 W/m² | - |
| 1777474716 | 16.67° C | 49% | 1015.7 hPa | 0 mm | - | 291 W/m² | - |
| 1777474648 | 16.67° C | 49% | 1015.6 hPa | 0 mm | - | 282 W/m² | - |
| 1777474229 | 16.67° C | 51% | 1015.3 hPa | 0 mm | - | 261 W/m² | - |
| 1777474035 | 16.11° C | 50% | 1015.6 hPa | 0 mm | - | 298 W/m² | - |
| 1777473987 | 16.11° C | 49% | 1015.6 hPa | 0 mm | - | 325 W/m² | - |
| 1777473785 | 16.67° C | 49% | 1015.7 hPa | 0 mm | - | 285 W/m² | - |
| 1777473262 | 16.67° C | 49% | 1015.9 hPa | 0 mm | - | 457 W/m² | - |
| 1777472778 | 16.67° C | 50% | 1015.8 hPa | 0 mm | - | 411 W/m² | - |
| 1777472750 | 16.67° C | 51% | 1015.5 hPa | 0 mm | - | 439 W/m² | - |
| 1777472310 | 16.67° C | 51% | 1015.6 hPa | 0 mm | - | 648 W/m² | - |
| 1777472117 | 16.67° C | 54% | 1015.6 hPa | 0 mm | - | 310 W/m² | - |
| 1777471875 | 16.11° C | 52% | 1015.8 hPa | 0 mm | - | 582 W/m² | - |
| 1777471521 | 16.67° C | 53% | 1015.7 hPa | 0 mm | - | 604 W/m² | - |
| 1777471456 | 16.67° C | 54% | 1015.7 hPa | 0 mm | - | 578 W/m² | - |
| 1777470747 | 16.11° C | 54% | 1016.1 hPa | 0 mm | - | 482 W/m² | - |
* Rain latest hour (hover to see other rain measurements)
** Current wind speed in m/s (hover to see current wind gust speed)